Time;durP1;ratioP1;P1;durP2;ratioP2;P2;SDS_P1;SDS_P2;PMS_P1;PMS_P2;Temp;Humidity;BMP_temperature;BMP_pressure;BME280_temperature;BME280_humidity;BME280_pressure;Samples;Min_cycle;Max_cycle;Signal;HPM_P1;HPM_P2
2021/12/28 00:01:49;;;;;;;1.30;1.20;;;;;;;-1.04;85.11;99951.75;5073107;28;20444;-69
2021/12/28 00:04:15;;;;;;;0.80;0.80;;;;;;;-1.06;85.47;99965.31;5072645;28;20490;-71
2021/12/28 00:06:42;;;;;;;0.40;0.30;;;;;;;-1.11;85.42;99951.91;5073016;28;20480;-68
2021/12/28 00:09:09;;;;;;;0.40;0.30;;;;;;;-1.11;86.00;99967.03;5075400;28;20449;-68
2021/12/28 00:11:35;;;;;;;0.40;0.30;;;;;;;-1.17;86.16;99966.16;5077439;28;20445;-69
2021/12/28 00:14:04;;;;;;;0.40;0.30;;;;;;;-1.16;86.26;99969.59;5076609;28;20445;-69
2021/12/28 00:16:35;;;;;;;0.40;0.30;;;;;;;-1.17;85.70;99947.56;5077337;28;20445;-68
2021/12/28 00:19:03;;;;;;;0.40;0.20;;;;;;;-1.10;85.28;99950.06;5076407;28;20511;-69
2021/12/28 00:21:30;;;;;;;0.40;0.30;;;;;;;-1.14;84.99;99955.06;5077075;28;20528;-69
2021/12/28 00:23:57;;;;;;;0.63;0.63;;;;;;;-1.17;84.46;99960.03;5076810;28;20449;-69
2021/12/28 00:26:24;;;;;;;0.40;0.30;;;;;;;-1.18;85.29;99971.72;5076580;28;20530;-69
2021/12/28 00:28:51;;;;;;;0.60;0.60;;;;;;;-1.24;84.73;99964.69;5076770;28;20864;-69
2021/12/28 00:31:18;;;;;;;2.43;2.27;;;;;;;-1.23;84.96;99968.97;5076516;28;20826;-69
2021/12/28 00:33:47;;;;;;;0.90;0.90;;;;;;;-1.25;85.39;99955.09;5076697;28;20445;-69
2021/12/28 00:36:15;;;;;;;0.40;0.30;;;;;;;-1.32;86.46;99958.72;5076359;28;20835;-69
2021/12/28 00:38:41;;;;;;;0.40;0.30;;;;;;;-1.34;86.20;99954.69;5076572;28;20445;-69
2021/12/28 00:41:08;;;;;;;29.00;12.17;;;;;;;-1.33;86.09;99962.44;5076408;28;20441;-69
2021/12/28 00:43:35;;;;;;;0.40;0.30;;;;;;;-1.30;86.57;99956.63;5076704;28;20503;-69
2021/12/28 00:46:03;;;;;;;0.40;0.30;;;;;;;-1.24;87.10;99951.41;5075737;28;21037;-69
2021/12/28 00:48:29;;;;;;;0.77;0.77;;;;;;;-1.30;88.28;99951.31;5076381;28;20456;-68
2021/12/28 00:50:58;;;;;;;0.40;0.30;;;;;;;-1.25;87.66;99942.63;5076098;28;20452;-68
2021/12/28 00:53:24;;;;;;;0.40;0.30;;;;;;;-1.27;86.83;99937.56;5075766;28;20973;-69
2021/12/28 00:55:51;;;;;;;0.40;0.30;;;;;;;-1.29;87.32;99942.28;5076120;28;20472;-68
2021/12/28 00:58:18;;;;;;;12.20;10.60;;;;;;;-1.31;86.20;99936.44;5075727;28;20981;-68
2021/12/28 01:00:46;;;;;;;4.67;4.37;;;;;;;-1.39;86.40;99936.00;5076067;28;20433;-67
2021/12/28 01:03:14;;;;;;;0.50;0.47;;;;;;;-1.40;86.58;99943.16;5073884;28;20442;-68
2021/12/28 01:05:40;;;;;;;0.40;0.40;;;;;;;-1.41;86.81;99938.09;5075922;28;20461;-68
2021/12/28 01:08:09;;;;;;;0.50;0.40;;;;;;;-1.38;86.49;99942.91;5075740;28;20500;-68
2021/12/28 01:10:38;;;;;;;0.40;0.30;;;;;;;-1.41;87.07;99951.38;5076115;28;20451;-68
2021/12/28 01:13:05;;;;;;;0.40;0.30;;;;;;;-1.35;86.70;99950.41;5075418;28;20444;-68
2021/12/28 01:15:32;;;;;;;0.40;0.30;;;;;;;-1.34;86.66;99949.38;5075826;28;20465;-69
2021/12/28 01:17:59;;;;;;;0.40;0.30;;;;;;;-1.33;86.35;99958.94;5075363;28;20456;-69
2021/12/28 01:20:27;;;;;;;1.03;0.97;;;;;;;-1.40;86.28;99960.97;5074691;28;20449;-69
2021/12/28 01:22:53;;;;;;;0.53;0.53;;;;;;;-1.39;86.44;99955.41;5075764;28;20449;-68
2021/12/28 01:25:22;;;;;;;0.40;0.30;;;;;;;-1.41;85.77;99941.56;5075370;28;20464;-68
2021/12/28 01:27:49;;;;;;;0.83;0.83;;;;;;;-1.38;85.47;99945.56;5075659;28;20477;-68
2021/12/28 01:30:18;;;;;;;0.40;0.30;;;;;;;-1.44;86.61;99941.22;5075367;28;20453;-69
2021/12/28 01:32:45;;;;;;;0.40;0.30;;;;;;;-1.52;87.08;99929.13;5075669;28;20863;-69
2021/12/28 01:35:13;;;;;;;0.40;0.30;;;;;;;-1.51;88.04;99930.72;5075122;28;20465;-69
2021/12/28 01:37:40;;;;;;;0.40;0.30;;;;;;;-1.41;88.24;99924.81;5075489;28;20445;-69
2021/12/28 01:40:10;;;;;;;5.67;3.23;;;;;;;-1.45;87.95;99919.19;5074972;28;20457;-69
2021/12/28 01:42:56;;;;;;;2.53;2.43;;;;;;;-1.41;88.14;99909.69;5075435;28;20488;-69
2021/12/28 01:45:32;;;;;;;0.40;0.30;;;;;;;-1.41;88.01;99898.25;5035405;28;20462;-69
2021/12/28 01:47:58;;;;;;;0.40;0.30;;;;;;;-1.45;87.88;99887.31;5037452;28;20470;-69
2021/12/28 01:50:25;;;;;;;0.40;0.30;;;;;;;-1.47;87.75;99878.75;5074907;28;20966;-68
2021/12/28 01:52:51;;;;;;;1.03;1.03;;;;;;;-1.52;87.62;99870.72;5075283;28;20519;-68
2021/12/28 01:55:18;;;;;;;0.40;0.30;;;;;;;-1.51;87.63;99872.31;5074719;28;20454;-69
2021/12/28 01:57:45;;;;;;;0.40;0.30;;;;;;;-1.48;87.18;99882.47;5074792;28;20457;-68
2021/12/28 02:00:14;;;;;;;0.40;0.30;;;;;;;-1.43;87.41;99893.19;5074858;28;20450;-68
2021/12/28 02:02:41;;;;;;;0.40;0.30;;;;;;;-1.36;86.68;99915.09;5074737;28;20456;-68
2021/12/28 02:05:08;;;;;;;0.40;0.30;;;;;;;-1.38;86.42;99913.69;5074682;28;20465;-68
2021/12/28 02:07:34;;;;;;;2.90;2.80;;;;;;;-1.35;86.70;99911.38;5074815;28;20481;-68
2021/12/28 02:10:01;;;;;;;0.40;0.30;;;;;;;-1.38;86.46;99922.47;5074546;28;20515;-68
2021/12/28 02:12:29;;;;;;;0.40;0.30;;;;;;;-1.33;86.32;99919.94;5074790;28;20468;-68
2021/12/28 02:14:56;;;;;;;1.13;1.13;;;;;;;-1.41;85.76;99915.00;5074390;28;20456;-68
2021/12/28 02:17:24;;;;;;;1.53;1.50;;;;;;;-1.46;86.09;99898.97;5074317;28;20453;-69
2021/12/28 02:19:50;;;;;;;0.40;0.30;;;;;;;-1.44;86.67;99883.59;5074459;28;20441;-68
2021/12/28 02:22:18;;;;;;;0.40;0.30;;;;;;;-1.42;87.00;99883.34;5074362;28;20452;-69
2021/12/28 02:24:45;;;;;;;0.40;0.30;;;;;;;-1.43;87.46;99879.09;5074499;28;20514;-68
2021/12/28 02:27:11;;;;;;;0.40;0.30;;;;;;;-1.45;86.52;99870.56;5073885;28;20481;-68
2021/12/28 02:29:37;;;;;;;0.40;0.30;;;;;;;-1.46;87.10;99872.44;5074203;28;20864;-68
2021/12/28 02:32:05;;;;;;;15.93;14.80;;;;;;;-1.51;87.33;99867.00;5073136;28;20441;-68
2021/12/28 02:34:31;;;;;;;0.40;0.30;;;;;;;-1.47;87.29;99862.81;5074521;28;20465;-69
2021/12/28 02:36:58;;;;;;;0.40;0.30;;;;;;;-1.44;86.95;99846.44;5073771;28;20461;-69
2021/12/28 02:39:25;;;;;;;0.40;0.30;;;;;;;-1.58;86.58;99832.66;5074241;28;20448;-69
2021/12/28 02:41:52;;;;;;;0.40;0.30;;;;;;;-1.55;87.16;99844.63;5073973;28;20503;-68
2021/12/28 02:44:18;;;;;;;0.40;0.30;;;;;;;-1.56;87.18;99862.41;5074204;28;20848;-67
2021/12/28 02:46:45;;;;;;;0.60;0.40;;;;;;;-1.54;86.97;99864.84;5073663;28;20485;-67
2021/12/28 02:49:11;;;;;;;1.70;1.60;;;;;;;-1.55;86.99;99855.25;5074119;28;20495;-67
2021/12/28 02:51:38;;;;;;;0.40;0.30;;;;;;;-1.49;87.17;99853.50;5073783;28;20564;-67
2021/12/28 02:54:04;;;;;;;1.03;1.03;;;;;;;-1.54;87.60;99857.69;5073588;28;20452;-67
2021/12/28 02:56:32;;;;;;;0.83;0.83;;;;;;;-1.52;86.69;99852.94;5073691;28;20829;-67
2021/12/28 02:59:01;;;;;;;0.40;0.30;;;;;;;-1.60;86.71;99841.88;5073834;28;20450;-67
2021/12/28 03:01:30;;;;;;;0.40;0.30;;;;;;;-1.59;87.03;99854.13;5073851;28;20445;-67
2021/12/28 03:04:03;;;;;;;0.40;0.30;;;;;;;-1.61;87.34;99848.25;5073732;28;20433;-67
2021/12/28 03:06:31;;;;;;;0.40;0.37;;;;;;;-1.60;87.23;99847.19;5073746;28;20458;-67
2021/12/28 03:08:59;;;;;;;0.40;0.30;;;;;;;-1.56;86.93;99856.28;5073455;28;20437;-67
2021/12/28 03:11:28;;;;;;;0.40;0.30;;;;;;;-1.54;86.51;99852.38;5073696;28;20858;-68
2021/12/28 03:13:59;;;;;;;0.50;0.50;;;;;;;-1.60;87.24;99841.88;5073459;28;20445;-67
2021/12/28 03:16:28;;;;;;;0.40;0.30;;;;;;;-1.61;86.87;99825.16;5073718;28;20422;-67
2021/12/28 03:18:55;;;;;;;0.40;0.30;;;;;;;-1.58;86.79;99818.56;5073124;28;20881;-67
2021/12/28 03:21:24;;;;;;;0.40;0.40;;;;;;;-1.60;86.36;99812.69;5073488;28;20433;-67
2021/12/28 03:23:51;;;;;;;0.50;0.50;;;;;;;-1.68;87.40;99824.53;5073241;28;20503;-67
2021/12/28 03:26:18;;;;;;;1.50;1.40;;;;;;;-1.65;87.21;99829.34;5073396;28;20468;-67
2021/12/28 03:28:45;;;;;;;0.40;0.30;;;;;;;-1.58;86.94;99813.25;5073205;28;20488;-67
2021/12/28 03:31:16;;;;;;;13.33;10.70;;;;;;;-1.54;87.13;99819.72;5073493;28;20448;-66
2021/12/28 03:33:45;;;;;;;0.40;0.30;;;;;;;-1.60;86.74;99810.84;5074373;28;20991;-67
2021/12/28 03:36:13;;;;;;;0.40;0.30;;;;;;;-1.68;86.67;99807.75;5073003;28;20472;-69
2021/12/28 03:38:41;;;;;;;0.40;0.40;;;;;;;-1.66;87.01;99800.38;5073407;28;20853;-67
2021/12/28 03:41:08;;;;;;;0.40;0.30;;;;;;;-1.63;87.04;99794.59;5072927;28;20444;-68
2021/12/28 03:43:36;;;;;;;0.40;0.30;;;;;;;-1.65;87.42;99789.50;5072641;28;20864;-67
2021/12/28 03:46:02;;;;;;;0.40;0.30;;;;;;;-1.70;87.38;99796.59;5073201;28;20475;-67
2021/12/28 03:48:30;;;;;;;0.40;0.30;;;;;;;-1.73;87.73;99787.25;5072395;28;20888;-67
2021/12/28 03:50:57;;;;;;;0.40;0.40;;;;;;;-1.70;87.07;99781.47;5073396;28;20460;-67
2021/12/28 03:53:24;;;;;;;1.73;1.63;;;;;;;-1.63;87.32;99773.38;5073128;28;20437;-67
2021/12/28 03:55:50;;;;;;;0.40;0.30;;;;;;;-1.65;86.44;99776.25;5073311;28;20491;-67
2021/12/28 03:58:17;;;;;;;5.47;5.20;;;;;;;-1.66;87.10;99758.72;5072783;28;20441;-67
2021/12/28 04:00:48;;;;;;;0.40;0.30;;;;;;;-1.71;87.42;99757.81;5073090;28;20487;-67
2021/12/28 04:03:15;;;;;;;4.37;4.20;;;;;;;-1.70;87.72;99748.81;5072906;28;20856;-67
2021/12/28 04:05:44;;;;;;;1.33;1.27;;;;;;;-1.70;87.63;99746.16;5072767;28;20461;-67
2021/12/28 04:08:11;;;;;;;0.40;0.30;;;;;;;-1.67;86.97;99740.38;5072968;28;20473;-67
2021/12/28 04:10:50;;;;;;;0.40;0.30;;;;;;;-1.74;87.21;99729.09;5072792;28;20612;-67
2021/12/28 04:13:18;;;;;;;0.40;0.30;;;;;;;-1.73;87.40;99722.75;5073056;28;20429;-67
2021/12/28 04:15:44;;;;;;;0.40;0.30;;;;;;;-1.70;87.58;99720.41;5072518;28;20494;-67
2021/12/28 04:18:11;;;;;;;0.40;0.30;;;;;;;-1.67;87.33;99722.59;5072813;28;20461;-67
2021/12/28 04:20:38;;;;;;;1.43;1.43;;;;;;;-1.64;86.89;99718.63;5072688;28;20441;-67
2021/12/28 04:23:06;;;;;;;0.40;0.30;;;;;;;-1.66;87.44;99723.41;5072607;28;20441;-67
2021/12/28 04:25:33;;;;;;;1.70;1.60;;;;;;;-1.62;87.95;99722.66;5032910;28;20463;-67
2021/12/28 04:27:59;;;;;;;0.40;0.30;;;;;;;-1.52;87.52;99724.66;5033616;28;20483;-68
2021/12/28 04:30:26;;;;;;;1.13;1.13;;;;;;;-1.56;87.35;99726.19;5032908;28;20439;-67
2021/12/28 04:32:53;;;;;;;50.30;42.40;;;;;;;-1.50;87.12;99733.22;5033077;28;20439;-69
2021/12/28 04:35:19;;;;;;;0.50;0.50;;;;;;;-1.46;86.74;99737.00;5072478;28;20473;-70
2021/12/28 04:37:46;;;;;;;0.40;0.30;;;;;;;-1.48;86.22;99732.97;5072819;28;20502;-71
2021/12/28 04:40:15;;;;;;;0.77;0.77;;;;;;;-1.48;86.89;99730.31;5072405;28;20457;-71
2021/12/28 04:42:42;;;;;;;0.40;0.30;;;;;;;-1.46;87.08;99729.03;5072171;28;20826;-71
2021/12/28 04:45:11;;;;;;;0.40;0.30;;;;;;;-1.40;86.90;99730.69;5072850;28;20461;-70
2021/12/28 04:47:37;;;;;;;0.40;0.30;;;;;;;-1.33;86.62;99725.19;5072230;28;20481;-71
2021/12/28 04:50:05;;;;;;;2.27;2.17;;;;;;;-1.39;86.33;99724.34;5072244;28;20456;-70
2021/12/28 04:52:35;;;;;;;0.40;0.30;;;;;;;-1.31;86.59;99729.25;5072736;28;20452;-70
2021/12/28 04:55:01;;;;;;;0.40;0.30;;;;;;;-1.33;85.69;99731.34;5072956;28;20469;-72
2021/12/28 04:57:29;;;;;;;10.60;9.90;;;;;;;-1.33;86.02;99723.38;5075931;28;20930;-70
2021/12/28 04:59:55;;;;;;;1.13;1.13;;;;;;;-1.33;86.20;99718.06;5075916;28;20440;-70
2021/12/28 05:02:22;;;;;;;0.40;0.30;;;;;;;-1.30;86.25;99709.59;5075877;28;20441;-71
2021/12/28 05:04:48;;;;;;;0.40;0.30;;;;;;;-1.21;85.73;99714.50;5076089;28;20465;-70
2021/12/28 05:07:15;;;;;;;0.40;0.40;;;;;;;-1.21;85.25;99719.81;5075719;28;20484;-71
2021/12/28 05:09:41;;;;;;;0.40;0.30;;;;;;;-1.25;85.99;99718.69;5075762;28;20441;-70
2021/12/28 05:12:09;;;;;;;0.40;0.30;;;;;;;-1.25;85.61;99724.00;5075760;28;20433;-71
2021/12/28 05:14:39;;;;;;;0.87;0.87;;;;;;;-1.27;85.76;99735.69;5076037;28;20465;-71
2021/12/28 05:17:06;;;;;;;0.40;0.30;;;;;;;-1.26;86.37;99763.03;5075317;28;20457;-71
2021/12/28 05:19:33;;;;;;;2.30;2.20;;;;;;;-1.15;86.00;99745.38;5075592;28;20961;-70
2021/12/28 05:22:00;;;;;;;0.40;0.30;;;;;;;-1.18;85.60;99732.59;5075749;28;20467;-71
2021/12/28 05:24:26;;;;;;;0.53;0.53;;;;;;;-1.15;85.90;99732.94;5075768;28;20470;-70
2021/12/28 05:26:53;;;;;;;0.40;0.30;;;;;;;-1.04;85.44;99733.84;5075554;28;20448;-70
2021/12/28 05:29:20;;;;;;;0.40;0.30;;;;;;;-1.05;85.08;99721.63;5075403;28;20509;-70
2021/12/28 05:31:48;;;;;;;0.40;0.30;;;;;;;-1.07;84.95;99721.06;5075582;28;20507;-71
2021/12/28 05:34:14;;;;;;;0.40;0.30;;;;;;;-1.09;85.02;99712.53;5075387;28;20449;-71
2021/12/28 05:36:41;;;;;;;1.03;1.03;;;;;;;-1.07;85.49;99703.25;5075609;28;20452;-71
2021/12/28 05:39:07;;;;;;;0.40;0.30;;;;;;;-1.04;85.76;99704.63;5075066;28;20946;-70
2021/12/28 05:41:34;;;;;;;0.40;0.33;;;;;;;-1.03;85.35;99688.44;5075483;28;20487;-71
2021/12/28 05:44:00;;;;;;;0.73;0.73;;;;;;;-1.11;85.14;99698.66;5075231;28;20499;-70
2021/12/28 05:46:27;;;;;;;5.33;5.03;;;;;;;-1.16;86.03;99699.41;5075676;28;20433;-70
2021/12/28 05:48:54;;;;;;;0.40;0.30;;;;;;;-1.15;86.33;99706.34;5074886;28;20489;-69
2021/12/28 05:51:21;;;;;;;0.40;0.30;;;;;;;-1.09;85.93;99702.72;5075279;28;20495;-69
2021/12/28 05:53:47;;;;;;;0.40;0.30;;;;;;;-1.08;84.67;99698.19;5074939;28;20445;-69
2021/12/28 05:56:14;;;;;;;12.50;11.80;;;;;;;-0.97;85.40;99702.59;5075144;28;20873;-69
2021/12/28 05:58:41;;;;;;;0.40;0.30;;;;;;;-0.90;85.97;99689.91;5074858;28;20483;-67
2021/12/28 06:01:07;;;;;;;0.40;0.30;;;;;;;-0.86;86.00;99692.88;5074785;28;20874;-69
2021/12/28 06:03:34;;;;;;;0.40;0.30;;;;;;;-0.92;85.78;99684.06;5074947;28;20441;-70
2021/12/28 06:06:02;;;;;;;0.40;0.30;;;;;;;-0.93;86.24;99678.97;5074665;28;20456;-70
2021/12/28 06:08:28;;;;;;;0.40;0.30;;;;;;;-0.96;85.36;99682.13;5074541;28;20526;-71
2021/12/28 06:10:55;;;;;;;0.50;0.50;;;;;;;-0.96;86.02;99672.31;5074656;28;20445;-71
2021/12/28 06:13:23;;;;;;;0.40;0.30;;;;;;;-0.89;85.83;99656.16;5074587;28;20914;-71
2021/12/28 06:15:50;;;;;;;0.40;0.30;;;;;;;-0.95;85.90;99657.16;5074808;28;20465;-70
2021/12/28 06:18:16;;;;;;;0.40;0.40;;;;;;;-1.04;86.15;99662.91;5073917;28;20453;-70
2021/12/28 06:20:43;;;;;;;0.40;0.30;;;;;;;-0.98;86.04;99661.09;5074401;28;20939;-71
2021/12/28 06:23:11;;;;;;;0.40;0.30;;;;;;;-0.93;86.50;99663.03;5074528;28;20449;-70
2021/12/28 06:25:38;;;;;;;0.40;0.30;;;;;;;-1.00;85.78;99675.72;5074603;28;20557;-70
2021/12/28 06:28:05;;;;;;;111.90;71.13;;;;;;;-0.93;86.00;99682.44;5073837;28;20881;-70
2021/12/28 06:30:31;;;;;;;0.40;0.30;;;;;;;-0.85;86.32;99682.00;5074266;28;20985;-69
2021/12/28 06:32:58;;;;;;;0.40;0.30;;;;;;;-0.90;85.68;99678.47;5074219;28;20446;-70
2021/12/28 06:35:25;;;;;;;1.73;1.33;;;;;;;-0.83;85.30;99679.09;5074015;28;20461;-70
2021/12/28 06:37:51;;;;;;;0.40;0.30;;;;;;;-0.77;86.04;99686.88;5074484;28;20441;-70
2021/12/28 06:40:19;;;;;;;10.20;9.13;;;;;;;-0.76;85.85;99669.88;5074297;28;20453;-69
2021/12/28 06:42:46;;;;;;;6.40;6.10;;;;;;;-0.73;84.82;99667.78;5074203;28;20452;-70
2021/12/28 06:45:12;;;;;;;0.60;0.60;;;;;;;-0.80;85.58;99660.81;5073817;28;20978;-70
2021/12/28 06:47:39;;;;;;;0.50;0.50;;;;;;;-0.76;85.86;99653.91;5073545;28;20962;-70
2021/12/28 06:50:07;;;;;;;0.40;0.30;;;;;;;-0.78;86.68;99647.25;5074173;28;20472;-70
2021/12/28 06:52:34;;;;;;;4.80;4.57;;;;;;;-0.71;86.61;99644.38;5068395;28;20451;-69
2021/12/28 06:55:00;;;;;;;0.77;0.77;;;;;;;-0.71;86.21;99647.84;5064673;28;20489;-70
2021/12/28 06:57:28;;;;;;;0.40;0.30;;;;;;;-0.69;86.85;99640.44;5073986;28;20491;-70
2021/12/28 06:59:55;;;;;;;0.40;0.30;;;;;;;-0.71;86.39;99641.72;5073647;28;20487;-69
2021/12/28 07:02:21;;;;;;;0.40;0.30;;;;;;;-0.73;86.45;99643.84;5073665;28;20450;-70
2021/12/28 07:04:47;;;;;;;0.70;0.70;;;;;;;-0.83;86.91;99633.91;5073274;28;20461;-71
2021/12/28 07:07:14;;;;;;;1.73;1.63;;;;;;;-0.76;86.40;99632.66;5053781;28;20527;-70
2021/12/28 07:09:41;;;;;;;0.40;0.30;;;;;;;-0.75;87.46;99646.78;5053981;28;20849;-70
2021/12/28 07:12:09;;;;;;;0.40;0.30;;;;;;;-0.70;87.81;99648.69;5072180;28;20954;-69
2021/12/28 07:14:36;;;;;;;10.47;9.73;;;;;;;-0.64;86.99;99653.78;5073560;28;20514;-70
2021/12/28 07:17:04;;;;;;;0.40;0.30;;;;;;;-0.57;86.40;99658.91;5073146;28;20457;-69
2021/12/28 07:19:30;;;;;;;0.50;0.40;;;;;;;-0.58;86.01;99654.63;5072831;28;20446;-70
2021/12/28 07:21:57;;;;;;;3.37;3.27;;;;;;;-0.64;87.02;99642.34;5073581;28;20512;-70
2021/12/28 07:24:23;;;;;;;0.40;0.30;;;;;;;-0.60;86.87;99644.25;5073418;28;20527;-70
2021/12/28 07:26:50;;;;;;;10.00;9.33;;;;;;;-0.60;86.86;99638.94;5073207;28;20988;-70
2021/12/28 07:29:16;;;;;;;8.97;8.37;;;;;;;-0.54;87.16;99643.25;5073119;28;20481;-71
2021/12/28 07:31:44;;;;;;;0.80;0.80;;;;;;;-0.56;87.98;99634.72;5073315;28;20445;-71
2021/12/28 07:34:11;;;;;;;27.70;26.00;;;;;;;-0.43;88.09;99632.72;5073340;28;20445;-71
2021/12/28 07:36:37;;;;;;;0.40;0.37;;;;;;;-0.40;88.04;99632.19;5073102;28;20449;-72
2021/12/28 07:39:05;;;;;;;0.40;0.30;;;;;;;-0.39;87.50;99623.19;5073378;28;20445;-70
2021/12/28 07:41:32;;;;;;;1.63;1.57;;;;;;;-0.34;87.78;99615.25;5073152;28;20449;-71
2021/12/28 07:43:58;;;;;;;4.00;3.80;;;;;;;-0.34;87.71;99608.06;5071149;28;20448;-70
2021/12/28 07:46:25;;;;;;;0.40;0.30;;;;;;;-0.35;87.27;99609.13;5073190;28;20465;-70
2021/12/28 07:48:52;;;;;;;7.93;7.60;;;;;;;-0.28;87.08;99612.34;5073197;28;20477;-71
2021/12/28 07:51:19;;;;;;;0.40;0.30;;;;;;;-0.28;88.03;99620.34;5072993;28;20441;-70
2021/12/28 07:53:45;;;;;;;8.70;8.20;;;;;;;-0.26;87.70;99623.56;5072915;28;20445;-71
2021/12/28 07:56:12;;;;;;;0.50;0.40;;;;;;;-0.22;87.19;99621.22;5073243;28;20897;-70
2021/12/28 07:58:39;;;;;;;0.50;0.47;;;;;;;-0.15;87.26;99621.78;5072395;28;20872;-69
2021/12/28 08:01:05;;;;;;;6.20;5.90;;;;;;;-0.17;87.67;99620.44;5072868;28;20445;-69
2021/12/28 08:03:32;;;;;;;137.73;81.70;;;;;;;-0.18;87.87;99629.47;5073026;28;20445;-71
2021/12/28 08:06:00;;;;;;;27.80;26.30;;;;;;;-0.12;87.92;99631.13;5072765;28;20461;-70
2021/12/28 08:08:26;;;;;;;0.40;0.30;;;;;;;-0.10;87.69;99615.69;5073033;28;20504;-69
2021/12/28 08:10:53;;;;;;;3.60;3.40;;;;;;;-0.12;87.16;99613.31;5072812;28;20438;-69
2021/12/28 08:13:21;;;;;;;4.00;3.80;;;;;;;-0.11;87.54;99619.41;5033104;28;20852;-68
2021/12/28 08:15:48;;;;;;;0.40;0.30;;;;;;;-0.13;87.67;99616.22;5058944;28;20537;-71
2021/12/28 08:18:14;;;;;;;1.00;1.00;;;;;;;-0.07;87.65;99618.66;5072881;28;20472;-70
2021/12/28 08:20:41;;;;;;;3.60;3.40;;;;;;;-0.02;87.72;99632.00;5072662;28;20449;-68
2021/12/28 08:23:08;;;;;;;0.70;0.70;;;;;;;0.06;87.24;99635.25;5072873;28;20450;-69
2021/12/28 08:25:36;;;;;;;27.80;23.23;;;;;;;0.09;87.05;99630.22;5072487;28;20456;-69
2021/12/28 08:28:05;;;;;;;0.40;0.30;;;;;;;0.10;86.68;99618.50;5072663;28;20450;-68
2021/12/28 08:30:34;;;;;;;0.40;0.30;;;;;;;0.15;87.31;99615.09;5075831;28;20483;-70
2021/12/28 08:33:01;;;;;;;0.50;0.40;;;;;;;0.19;86.49;99613.53;5076505;28;20506;-69
2021/12/28 08:35:28;;;;;;;1.03;1.03;;;;;;;0.23;87.10;99603.97;5076399;28;20586;-69
2021/12/28 08:37:54;;;;;;;1.57;1.47;;;;;;;0.24;87.55;99606.34;5076581;28;20461;-68
2021/12/28 08:40:23;;;;;;;0.40;0.30;;;;;;;0.35;87.68;99612.53;5076566;28;20441;-69
2021/12/28 08:42:49;;;;;;;0.40;0.30;;;;;;;0.42;87.56;99607.00;5076124;28;20966;-69
2021/12/28 08:45:18;;;;;;;0.40;0.30;;;;;;;0.42;87.64;99601.66;5076450;28;21004;-69
2021/12/28 08:47:46;;;;;;;0.40;0.30;;;;;;;0.43;87.52;99608.59;5075921;28;20449;-69
2021/12/28 08:50:13;;;;;;;0.40;0.30;;;;;;;0.46;87.47;99602.75;5076093;28;20485;-69
2021/12/28 08:52:39;;;;;;;0.40;0.30;;;;;;;0.47;87.31;99609.69;5076243;28;20452;-68
2021/12/28 08:55:08;;;;;;;0.40;0.30;;;;;;;0.48;87.18;99605.94;5075860;28;20465;-68
2021/12/28 08:57:36;;;;;;;0.40;0.30;;;;;;;0.41;87.56;99594.75;5076309;28;20486;-69
2021/12/28 09:00:05;;;;;;;0.40;0.30;;;;;;;0.48;87.23;99595.28;5076055;28;20448;-69
2021/12/28 09:02:32;;;;;;;0.40;0.40;;;;;;;0.43;87.72;99589.94;5076234;28;20520;-68
2021/12/28 09:04:58;;;;;;;12.37;11.53;;;;;;;0.47;87.30;99585.69;5075901;28;20488;-69
2021/12/28 09:07:25;;;;;;;0.40;0.30;;;;;;;0.54;87.38;99578.28;5075931;28;20450;-69
2021/12/28 09:09:51;;;;;;;2.67;2.57;;;;;;;0.56;87.19;99575.34;5075381;28;20986;-67
2021/12/28 09:12:18;;;;;;;0.40;0.30;;;;;;;0.63;87.20;99576.72;5068247;28;20442;-67
2021/12/28 09:14:45;;;;;;;0.40;0.40;;;;;;;0.60;87.15;99576.44;5056020;28;20516;-68
2021/12/28 09:17:12;;;;;;;1.03;1.03;;;;;;;0.51;87.42;99573.47;5073631;28;20453;-67
2021/12/28 09:19:38;;;;;;;2.13;2.03;;;;;;;0.59;87.25;99588.97;5075168;28;20445;-68
2021/12/28 09:22:06;;;;;;;0.40;0.30;;;;;;;0.59;86.96;99580.97;5071707;28;20452;-67
2021/12/28 09:24:32;;;;;;;0.40;0.30;;;;;;;0.62;87.41;99583.13;5075119;28;20993;-67
2021/12/28 09:26:59;;;;;;;0.40;0.30;;;;;;;0.65;87.50;99585.25;5075435;28;20446;-68
2021/12/28 09:29:29;;;;;;;1.37;1.37;;;;;;;0.66;87.67;99586.06;5075470;28;20484;-66
2021/12/28 09:31:58;;;;;;;17.07;9.53;;;;;;;0.71;87.82;99578.91;5075375;28;20876;-68
2021/12/28 09:34:26;;;;;;;0.40;0.30;;;;;;;0.79;87.36;99568.78;5076014;28;20847;-66
2021/12/28 09:36:52;;;;;;;4.87;4.57;;;;;;;0.80;87.51;99575.72;5072651;28;20449;-66
2021/12/28 09:39:22;;;;;;;2.87;2.77;;;;;;;0.83;86.91;99569.84;5060079;28;20836;-66
2021/12/28 09:41:50;;;;;;;0.40;0.30;;;;;;;0.85;86.82;99575.75;5054790;28;20533;-66
2021/12/28 09:44:17;;;;;;;2.50;2.40;;;;;;;0.88;86.21;99567.22;5069975;28;20951;-67
2021/12/28 09:46:43;;;;;;;1.90;1.80;;;;;;;0.84;86.68;99566.13;5074648;28;20437;-67
2021/12/28 09:49:11;;;;;;;0.40;0.30;;;;;;;0.89;87.61;99566.97;5074165;28;20489;-68
2021/12/28 09:51:37;;;;;;;0.50;0.50;;;;;;;0.87;88.02;99565.63;5074397;28;20449;-67
2021/12/28 09:54:04;;;;;;;1.53;1.43;;;;;;;0.86;88.50;99574.69;5073649;28;20441;-66
2021/12/28 09:56:33;;;;;;;0.50;0.40;;;;;;;0.81;89.65;99567.47;5074280;28;20959;-68
2021/12/28 09:59:00;;;;;;;0.40;0.30;;;;;;;0.84;89.97;99566.94;5072384;28;20456;-66
2021/12/28 10:01:27;;;;;;;11.33;10.33;;;;;;;0.93;90.19;99567.22;5066827;28;20441;-67
2021/12/28 10:03:55;;;;;;;0.40;0.33;;;;;;;1.00;89.69;99565.13;5074137;28;20457;-67
2021/12/28 10:06:26;;;;;;;9.53;9.03;;;;;;;1.04;89.37;99552.06;5074765;28;20472;-67
2021/12/28 10:09:05;;;;;;;0.60;0.50;;;;;;;0.97;90.10;99552.31;5074351;28;20518;-68
2021/12/28 10:11:32;;;;;;;0.40;0.30;;;;;;;0.84;90.59;99550.13;5074166;28;20918;-68
2021/12/28 10:14:14;;;;;;;5.10;3.20;;;;;;;0.93;91.16;99540.56;5074207;28;20973;-67
2021/12/28 10:16:47;;;;;;;0.40;0.30;;;;;;;0.89;91.78;99547.50;5074089;28;20444;-67
2021/12/28 10:19:31;;;;;;;0.40;0.30;;;;;;;0.89;92.75;99542.97;5073821;28;20487;-68
2021/12/28 10:22:19;;;;;;;0.40;0.30;;;;;;;0.85;93.34;99533.91;5069043;28;20448;-66
2021/12/28 10:24:47;;;;;;;15.83;14.83;;;;;;;0.85;94.17;99525.09;5044076;28;20971;-68
2021/12/28 10:27:15;;;;;;;0.40;0.30;;;;;;;0.89;95.12;99526.19;5054687;28;20449;-67
2021/12/28 10:29:42;;;;;;;0.40;0.30;;;;;;;0.94;95.78;99524.31;5053179;28;21007;-68
2021/12/28 10:32:16;;;;;;;0.50;0.47;;;;;;;1.03;95.20;99523.81;5054548;28;20455;-68
2021/12/28 10:34:45;;;;;;;6.40;6.10;;;;;;;1.01;95.24;99524.06;5073836;28;20822;-67
2021/12/28 10:37:20;;;;;;;0.40;0.30;;;;;;;1.05;94.70;99519.78;5073529;28;20495;-67
2021/12/28 10:39:49;;;;;;;0.40;0.30;;;;;;;1.14;94.59;99504.88;5053325;28;20435;-66
2021/12/28 10:42:40;;;;;;;0.50;0.30;;;;;;;1.21;94.37;99509.97;5044571;28;20435;-67
2021/12/28 10:45:08;;;;;;;0.40;0.20;;;;;;;1.22;94.04;99504.34;5061072;28;20862;-67
2021/12/28 10:47:36;;;;;;;0.40;0.30;;;;;;;1.22;93.94;99488.34;5056015;28;20867;-67
2021/12/28 10:50:08;;;;;;;4.37;4.10;;;;;;;1.30;94.04;99483.56;5053820;28;20478;-68
2021/12/28 10:52:43;;;;;;;0.40;0.30;;;;;;;1.32;93.44;99478.75;5057420;28;20817;-67
2021/12/28 10:55:22;;;;;;;0.40;0.30;;;;;;;1.35;93.51;99473.69;5054293;28;20557;-66
2021/12/28 10:57:49;;;;;;;5.13;4.73;;;;;;;1.38;92.79;99475.03;5053991;28;20982;-67
2021/12/28 11:00:26;;;;;;;1.37;1.27;;;;;;;1.35;93.60;99471.00;5057854;28;20437;-69
2021/12/28 11:02:53;;;;;;;0.40;0.30;;;;;;;1.37;93.15;99468.06;5074220;28;20433;-69
2021/12/28 11:05:31;;;;;;;0.40;0.30;;;;;;;1.48;92.87;99467.00;5073297;28;20504;-69
2021/12/28 11:08:01;;;;;;;0.40;0.30;;;;;;;1.54;93.02;99467.78;5073684;28;20460;-70
2021/12/28 11:10:28;;;;;;;0.40;0.20;;;;;;;1.61;92.51;99460.31;5070309;28;20569;-70
2021/12/28 11:12:55;;;;;;;0.40;0.30;;;;;;;1.57;93.30;99461.94;5056771;28;20480;-69
2021/12/28 11:15:22;;;;;;;0.40;0.27;;;;;;;1.67;92.56;99456.56;5054983;28;20529;-70
2021/12/28 11:17:49;;;;;;;0.40;0.30;;;;;;;1.75;92.29;99446.13;5054545;28;20934;-70
2021/12/28 11:20:16;;;;;;;0.40;0.30;;;;;;;1.80;92.42;99447.19;5060554;28;20442;-69
2021/12/28 11:23:09;;;;;;;0.40;0.20;;;;;;;1.85;91.34;99441.84;5072952;28;20445;-69
2021/12/28 11:25:35;;;;;;;0.40;0.30;;;;;;;1.94;91.21;99440.22;5073163;28;20466;-69
2021/12/28 11:28:17;;;;;;;2.63;2.53;;;;;;;1.94;90.69;99429.53;5072775;28;20445;-69
2021/12/28 11:31:07;;;;;;;0.40;0.30;;;;;;;1.98;90.49;99434.06;5064044;28;20926;-69
2021/12/28 11:33:45;;;;;;;7.93;7.63;;;;;;;1.97;90.13;99424.44;5071661;28;20434;-69
2021/12/28 11:36:16;;;;;;;0.40;0.27;;;;;;;2.08;90.20;99409.19;5072531;28;20464;-71
2021/12/28 11:38:44;;;;;;;0.40;0.20;;;;;;;2.01;89.96;99411.34;5067469;28;20437;-70